createdAt,value
2019-04-13T00:00:03.317Z,1.90
2019-04-13T00:02:36.294Z,2.37
2019-04-13T00:05:10.804Z,2.23
2019-04-13T00:07:39.443Z,2.20
2019-04-13T00:10:07.828Z,2.30
2019-04-13T00:12:36.197Z,1.90
2019-04-13T00:15:06.590Z,2.20
2019-04-13T00:17:34.961Z,2.10
2019-04-13T00:20:03.904Z,2.53
2019-04-13T00:22:32.202Z,2.57
2019-04-13T00:25:00.564Z,2.37
2019-04-13T00:27:28.972Z,2.10
2019-04-13T00:29:57.330Z,2.20
2019-04-13T00:32:25.718Z,2.20
2019-04-13T00:34:54.082Z,1.87
2019-04-13T00:37:22.398Z,2.00
2019-04-13T00:39:50.757Z,2.40
2019-04-13T00:42:19.077Z,2.20
2019-04-13T00:44:47.458Z,2.33
2019-04-13T00:47:15.820Z,2.53
2019-04-13T00:49:44.104Z,2.30
2019-04-13T00:52:12.398Z,2.00
2019-04-13T00:54:40.673Z,2.20
2019-04-13T00:57:08.973Z,2.10
2019-04-13T00:59:37.245Z,2.10
2019-04-13T01:02:05.533Z,2.33
2019-04-13T01:04:33.813Z,2.13
2019-04-13T01:07:02.110Z,2.03
2019-04-13T01:09:30.400Z,2.13
2019-04-13T01:11:58.760Z,2.03
2019-04-13T01:14:27.039Z,2.70
2019-04-13T01:16:55.335Z,2.20
2019-04-13T01:19:23.618Z,2.50
2019-04-13T01:21:51.998Z,2.10
2019-04-13T01:24:20.319Z,2.10
2019-04-13T01:26:48.616Z,2.17
2019-04-13T01:29:16.901Z,2.23
2019-04-13T01:31:45.263Z,2.87
2019-04-13T01:34:13.539Z,2.47
2019-04-13T01:36:41.883Z,1.90
2019-04-13T01:39:10.166Z,2.17
2019-04-13T01:41:38.444Z,2.40
2019-04-13T01:44:06.727Z,2.20
2019-04-13T01:46:35.003Z,1.90
2019-04-13T01:49:03.301Z,2.43
2019-04-13T01:51:31.577Z,2.43
2019-04-13T01:53:59.873Z,2.30
2019-04-13T01:56:28.168Z,2.27
2019-04-13T01:58:56.458Z,2.20
2019-04-13T02:01:32.570Z,2.47
2019-04-13T02:04:02.503Z,2.20
2019-04-13T02:06:30.850Z,2.23
2019-04-13T02:09:13.008Z,2.20
2019-04-13T02:11:41.351Z,2.40
2019-04-13T02:14:09.650Z,2.23
2019-04-13T02:16:38.003Z,2.30
2019-04-13T02:19:06.304Z,2.00
2019-04-13T02:21:34.647Z,2.10
2019-04-13T02:24:03.007Z,2.30
2019-04-13T02:26:31.291Z,2.10
2019-04-13T02:28:59.579Z,3.10
2019-04-13T02:31:27.860Z,2.07
2019-04-13T02:33:56.231Z,2.30
2019-04-13T02:36:24.586Z,2.30
2019-04-13T02:38:52.955Z,2.20
2019-04-13T02:41:21.297Z,1.90
2019-04-13T02:43:49.671Z,2.30
2019-04-13T02:46:18.019Z,2.43
2019-04-13T02:48:46.298Z,2.00
2019-04-13T02:51:14.673Z,2.47
2019-04-13T02:53:43.048Z,2.40
2019-04-13T02:56:11.437Z,2.10
2019-04-13T02:58:39.819Z,2.30
2019-04-13T03:01:08.191Z,2.03
2019-04-13T03:03:36.567Z,2.00
2019-04-13T03:06:04.952Z,2.30
2019-04-13T03:08:33.371Z,2.30
2019-04-13T03:11:01.665Z,2.10
2019-04-13T03:13:29.948Z,2.23
2019-04-13T03:16:16.297Z,2.10
2019-04-13T03:18:46.220Z,2.13
2019-04-13T03:21:33.924Z,2.30
2019-04-13T03:24:02.181Z,2.43
2019-04-13T03:26:30.467Z,2.00
2019-04-13T03:28:58.739Z,2.47
2019-04-13T03:31:27.026Z,2.50
2019-04-13T03:33:55.366Z,2.10
2019-04-13T03:36:23.656Z,2.10
2019-04-13T03:38:51.920Z,2.27
2019-04-13T03:41:20.277Z,2.10
2019-04-13T03:43:48.561Z,2.17
2019-04-13T03:46:16.835Z,2.20
2019-04-13T03:48:45.109Z,2.13
2019-04-13T03:51:13.385Z,2.20
2019-04-13T03:53:41.657Z,2.20
2019-04-13T03:56:09.930Z,2.00
2019-04-13T03:58:38.202Z,2.13
2019-04-13T04:01:06.493Z,2.10
2019-04-13T04:03:34.761Z,2.27
2019-04-13T04:06:11.634Z,2.20
2019-04-13T04:08:33.032Z,2.20
2019-04-13T04:11:01.318Z,2.20
2019-04-13T04:13:29.576Z,2.10
2019-04-13T04:15:57.858Z,2.00
2019-04-13T04:18:26.196Z,2.30
2019-04-13T04:20:54.478Z,2.27
2019-04-13T04:23:22.818Z,2.10
2019-04-13T04:25:51.098Z,2.10
2019-04-13T04:28:19.364Z,2.00
2019-04-13T04:30:47.656Z,2.57
2019-04-13T04:33:15.923Z,2.00
2019-04-13T04:35:44.215Z,2.33
2019-04-13T04:38:12.480Z,2.20
2019-04-13T04:40:40.741Z,2.10
2019-04-13T04:43:09.028Z,1.97
2019-04-13T04:45:37.311Z,2.40
2019-04-13T04:48:05.596Z,2.30
2019-04-13T04:50:33.942Z,2.10
2019-04-13T04:53:02.229Z,1.87
2019-04-13T04:55:30.565Z,2.00
2019-04-13T04:57:58.856Z,2.37
2019-04-13T05:00:27.131Z,2.30
2019-04-13T05:02:55.391Z,2.27
2019-04-13T05:05:23.758Z,2.00
2019-04-13T05:07:52.029Z,3.03
2019-04-13T05:10:20.309Z,2.47
2019-04-13T05:12:48.650Z,2.10
2019-04-13T05:15:16.928Z,2.20
2019-04-13T05:17:45.192Z,1.97
2019-04-13T05:20:13.481Z,2.33
2019-04-13T05:22:41.742Z,2.13
2019-04-13T05:25:10.105Z,2.00
2019-04-13T05:27:38.379Z,2.10
2019-04-13T05:30:06.678Z,2.40
2019-04-13T05:32:35.023Z,2.30
2019-04-13T05:35:03.757Z,2.20
2019-04-13T05:37:32.045Z,2.17
2019-04-13T05:40:00.336Z,2.40
2019-04-13T05:42:28.683Z,2.40
2019-04-13T05:44:56.950Z,2.30
2019-04-13T05:47:25.244Z,2.33
2019-04-13T05:49:53.516Z,2.30
2019-04-13T05:52:21.809Z,2.30
2019-04-13T05:54:50.079Z,2.70
2019-04-13T05:57:18.357Z,2.43
2019-04-13T05:59:46.648Z,2.37
2019-04-13T06:02:14.988Z,2.63
2019-04-13T06:04:43.282Z,2.50
2019-04-13T06:07:11.542Z,2.40
2019-04-13T06:09:39.831Z,2.00
2019-04-13T06:12:10.165Z,2.50
2019-04-13T06:14:39.680Z,2.30
2019-04-13T06:17:08.090Z,2.57
2019-04-13T06:19:36.587Z,2.40
2019-04-13T06:22:05.421Z,2.00
2019-04-13T06:24:33.705Z,2.20
2019-04-13T06:27:01.978Z,2.50
2019-04-13T06:29:30.248Z,2.17
2019-04-13T06:32:00.176Z,2.13
2019-04-13T06:34:42.255Z,2.27
2019-04-13T06:37:12.335Z,2.00
2019-04-13T06:39:40.538Z,2.30
2019-04-13T06:42:08.816Z,2.10
2019-04-13T06:44:37.155Z,2.30
2019-04-13T06:47:05.454Z,2.20
2019-04-13T06:49:33.748Z,2.10
2019-04-13T06:52:04.078Z,2.00
2019-04-13T06:54:32.054Z,2.30
2019-04-13T06:57:00.341Z,2.00
2019-04-13T06:59:28.619Z,2.50
2019-04-13T07:01:56.961Z,3.17
2019-04-13T07:04:25.241Z,4.60
2019-04-13T07:06:54.183Z,8.13
2019-04-13T07:09:26.071Z,9.00
2019-04-13T07:12:09.775Z,11.47
2019-04-13T07:14:38.135Z,14.53
2019-04-13T07:17:08.134Z,16.33
2019-04-13T07:19:36.441Z,20.47
2019-04-13T07:22:04.726Z,22.43
2019-04-13T07:24:33.067Z,27.57
2019-04-13T07:27:01.413Z,28.47
2019-04-13T07:29:29.721Z,32.13
2019-04-13T07:32:01.475Z,34.57
2019-04-13T07:34:28.130Z,33.73
2019-04-13T07:36:56.493Z,34.70
2019-04-13T07:39:24.834Z,36.20
2019-04-13T07:41:53.126Z,34.33
2019-04-13T07:44:23.052Z,34.27
2019-04-13T07:46:58.738Z,33.27
2019-04-13T07:49:31.710Z,28.43
2019-04-13T07:52:01.634Z,24.63
2019-04-13T07:54:29.904Z,21.57
2019-04-13T07:57:02.176Z,19.23
2019-04-13T07:59:28.255Z,14.93
2019-04-13T08:01:57.374Z,11.83
2019-04-13T08:04:25.963Z,12.93
2019-04-13T08:06:54.441Z,10.67
2019-04-13T08:09:22.708Z,9.17
2019-04-13T08:11:50.984Z,7.97
2019-04-13T08:14:32.814Z,7.30
2019-04-13T08:17:06.079Z,6.27
2019-04-13T08:19:37.362Z,6.47
2019-04-13T08:22:05.705Z,5.43
2019-04-13T08:24:34.128Z,5.13
2019-04-13T08:27:02.450Z,5.60
2019-04-13T08:29:30.733Z,4.27
2019-04-13T08:32:02.080Z,4.77
2019-04-13T08:34:30.079Z,4.27
2019-04-13T08:36:58.351Z,4.57
2019-04-13T08:39:27.019Z,4.53
2019-04-13T08:41:55.465Z,4.77
2019-04-13T08:44:23.745Z,5.17
2019-04-13T08:46:52.107Z,4.30
2019-04-13T08:49:20.385Z,4.67
2019-04-13T08:51:48.677Z,4.40
2019-04-13T08:54:16.948Z,4.93
2019-04-13T08:56:45.229Z,4.27
2019-04-13T08:59:14.061Z,4.77
2019-04-13T09:01:42.866Z,4.70
2019-04-13T09:04:11.133Z,4.37
2019-04-13T09:06:39.430Z,4.40
2019-04-13T09:09:07.774Z,5.03
2019-04-13T09:11:36.300Z,3.80
2019-04-13T09:14:08.708Z,4.30
2019-04-13T09:16:35.291Z,4.30
2019-04-13T09:19:21.090Z,3.90
2019-04-13T09:21:53.826Z,5.57
2019-04-13T09:24:21.249Z,4.07
2019-04-13T09:26:49.542Z,4.20
2019-04-13T09:29:17.840Z,3.70
2019-04-13T09:31:46.772Z,3.80
2019-04-13T09:34:29.830Z,5.37
2019-04-13T09:36:45.046Z,4.03
2019-04-13T09:39:13.345Z,3.73
2019-04-13T09:41:41.616Z,4.33
2019-04-13T09:44:14.274Z,4.80
2019-04-13T09:46:43.327Z,4.33
2019-04-13T09:49:11.672Z,4.00
2019-04-13T09:51:40.107Z,4.30
2019-04-13T09:54:08.623Z,4.03
2019-04-13T09:56:37.787Z,3.60
2019-04-13T09:59:10.793Z,3.67
2019-04-13T10:01:36.549Z,5.53
2019-04-13T10:04:04.837Z,3.97
2019-04-13T10:06:33.110Z,4.43
2019-04-13T10:09:01.393Z,3.53
2019-04-13T10:11:31.303Z,3.30
2019-04-13T10:14:17.636Z,3.47
2019-04-13T10:17:02.736Z,3.50
2019-04-13T10:19:31.780Z,3.50
2019-04-13T10:22:00.749Z,3.00
2019-04-13T10:24:37.959Z,3.20
2019-04-13T10:27:08.522Z,2.60
2019-04-13T10:29:37.634Z,2.90
2019-04-13T10:32:05.931Z,2.60
2019-04-13T10:34:34.206Z,2.83
2019-04-13T10:37:02.561Z,3.10
2019-04-13T10:39:30.840Z,2.70
2019-04-13T10:41:59.193Z,2.60
2019-04-13T10:44:29.112Z,2.47
2019-04-13T10:47:02.795Z,2.57
2019-04-13T10:49:38.945Z,2.50
2019-04-13T10:52:08.868Z,2.40
2019-04-13T10:54:37.213Z,2.10
2019-04-13T10:57:05.516Z,2.87
2019-04-13T10:59:33.850Z,2.07
2019-04-13T11:02:02.118Z,2.70
2019-04-13T11:04:30.475Z,2.00
2019-04-13T11:06:58.751Z,1.90
2019-04-13T11:09:29.001Z,1.93
2019-04-13T11:11:57.024Z,1.60
2019-04-13T11:14:25.325Z,1.87
2019-04-13T11:16:58.073Z,1.70
2019-04-13T11:19:23.728Z,1.83
2019-04-13T11:21:52.086Z,1.87
2019-04-13T11:24:20.355Z,1.83
2019-04-13T11:26:51.264Z,1.80
2019-04-13T11:29:18.642Z,1.90
2019-04-13T11:31:46.994Z,2.50
2019-04-13T11:34:15.260Z,1.80
2019-04-13T11:36:43.551Z,2.23
2019-04-13T11:39:11.822Z,1.87
2019-04-13T11:41:56.688Z,1.63
2019-04-13T11:44:47.993Z,1.67
2019-04-13T11:47:17.599Z,1.90
2019-04-13T11:49:45.930Z,2.43
2019-04-13T11:52:14.187Z,1.77
2019-04-13T11:54:42.470Z,2.60
2019-04-13T11:57:11.486Z,1.77
2019-04-13T11:59:40.289Z,2.00
2019-04-13T12:02:10.219Z,1.80
2019-04-13T12:04:52.097Z,1.93
2019-04-13T12:07:30.929Z,1.70
2019-04-13T12:10:03.343Z,1.70
2019-04-13T12:12:35.223Z,1.73
2019-04-13T12:15:24.530Z,2.50
2019-04-13T12:18:10.663Z,1.77
2019-04-13T12:20:43.379Z,2.30
2019-04-13T12:23:11.649Z,1.67
2019-04-13T12:25:40.382Z,2.17
2019-04-13T12:28:09.185Z,4.13
2019-04-13T12:30:39.119Z,1.73
2019-04-13T12:33:07.390Z,1.90
2019-04-13T12:35:35.695Z,2.27
2019-04-13T12:38:09.546Z,2.03
2019-04-13T12:40:35.628Z,1.70
2019-04-13T12:43:03.969Z,2.17
2019-04-13T12:45:32.922Z,2.13
2019-04-13T12:48:01.188Z,1.57
2019-04-13T12:50:29.482Z,1.47
2019-04-13T12:52:57.757Z,1.70
2019-04-13T12:55:26.024Z,2.80
2019-04-13T12:57:54.304Z,1.57
2019-04-13T13:00:30.174Z,2.37
2019-04-13T13:02:58.524Z,2.83
2019-04-13T13:05:30.970Z,2.13
2019-04-13T13:07:59.252Z,1.97
2019-04-13T13:10:27.516Z,2.63
2019-04-13T13:12:58.244Z,1.50
2019-04-13T13:15:25.790Z,2.20
2019-04-13T13:17:54.533Z,1.87
2019-04-13T13:20:23.730Z,2.10
2019-04-13T13:22:52.068Z,1.50
2019-04-13T13:25:21.952Z,1.77
2019-04-13T13:27:50.350Z,1.60
2019-04-13T13:30:19.890Z,1.57
2019-04-13T13:32:48.637Z,2.60
2019-04-13T13:35:16.915Z,1.73
2019-04-13T13:37:45.207Z,2.17
2019-04-13T13:40:15.857Z,1.53
2019-04-13T13:42:43.505Z,1.70
2019-04-13T13:45:11.771Z,1.63
2019-04-13T13:47:40.057Z,2.37
2019-04-13T13:50:09.075Z,2.23
2019-04-13T13:52:38.129Z,1.70
2019-04-13T13:55:07.221Z,2.37
2019-04-13T13:57:37.286Z,1.60
2019-04-13T14:00:08.328Z,1.87
2019-04-13T14:02:36.622Z,1.70
2019-04-13T14:05:05.795Z,1.73
2019-04-13T14:07:34.153Z,2.60
2019-04-13T14:10:15.050Z,2.00
2019-04-13T14:12:44.035Z,2.03
2019-04-13T14:15:13.046Z,1.40
2019-04-13T14:17:41.403Z,1.57
2019-04-13T14:20:09.673Z,1.53
2019-04-13T14:22:37.975Z,1.47
2019-04-13T14:25:06.912Z,1.50
2019-04-13T14:27:35.273Z,1.70
2019-04-13T14:30:07.875Z,1.83
2019-04-13T14:32:36.578Z,1.97
2019-04-13T14:35:06.478Z,1.60
2019-04-13T14:37:34.816Z,1.60
2019-04-13T14:40:05.978Z,1.87
2019-04-13T14:42:33.868Z,1.60
2019-04-13T14:45:02.154Z,2.40
2019-04-13T14:47:30.423Z,1.67
2019-04-13T14:49:59.272Z,2.00
2019-04-13T14:52:27.727Z,1.67
2019-04-13T14:54:59.778Z,1.60
2019-04-13T14:57:26.027Z,2.40
2019-04-13T14:59:54.300Z,1.70
2019-04-13T15:02:22.579Z,1.90
2019-04-13T15:04:50.935Z,2.60
2019-04-13T15:07:19.342Z,3.07
2019-04-13T15:09:47.642Z,2.10
2019-04-13T15:12:16.003Z,2.33
2019-04-13T15:14:45.243Z,1.53
2019-04-13T15:17:14.604Z,1.40
2019-04-13T15:19:55.900Z,1.60
2019-04-13T15:22:16.139Z,1.73
2019-04-13T15:24:48.115Z,1.53
2019-04-13T15:27:13.899Z,1.60
2019-04-13T15:29:43.480Z,2.37
2019-04-13T15:32:12.726Z,1.63
2019-04-13T15:34:42.572Z,2.00
2019-04-13T15:37:12.421Z,1.40
2019-04-13T15:39:45.116Z,3.57
2019-04-13T15:42:17.460Z,2.40
2019-04-13T15:44:44.005Z,1.40
2019-04-13T15:47:16.482Z,2.93
2019-04-13T15:49:42.391Z,2.90
2019-04-13T15:52:10.792Z,1.50
2019-04-13T15:54:39.306Z,3.73
2019-04-13T15:57:09.769Z,2.80
2019-04-13T15:59:37.846Z,2.10
2019-04-13T16:02:06.132Z,2.53
2019-04-13T16:04:35.250Z,2.17
2019-04-13T16:07:03.772Z,1.70
2019-04-13T16:09:37.187Z,1.90
2019-04-13T16:12:14.658Z,2.57
2019-04-13T16:14:44.011Z,2.33
2019-04-13T16:17:12.516Z,3.00
2019-04-13T16:19:41.528Z,1.80
2019-04-13T16:22:11.384Z,2.63
2019-04-13T16:24:39.996Z,2.20
2019-04-13T16:27:08.288Z,2.10
2019-04-13T16:29:38.257Z,2.33
2019-04-13T16:32:08.206Z,2.40
2019-04-13T16:34:50.951Z,2.17
2019-04-13T16:37:27.916Z,2.03
2019-04-13T16:39:57.738Z,1.90
2019-04-13T16:42:30.785Z,2.73
2019-04-13T16:45:00.435Z,2.30
2019-04-13T16:47:31.020Z,2.27
2019-04-13T16:50:13.793Z,2.63
2019-04-13T16:52:47.382Z,2.40
2019-04-13T16:58:24.159Z,3.47
2019-04-13T17:01:10.235Z,2.63
2019-04-13T17:03:43.790Z,2.70
2019-04-13T17:06:13.223Z,2.93
2019-04-13T17:08:41.502Z,2.63
2019-04-13T17:11:09.860Z,2.40
2019-04-13T17:13:39.185Z,2.20
2019-04-13T17:16:07.598Z,2.80
2019-04-13T17:18:40.344Z,4.33
2019-04-13T17:21:16.222Z,3.20
2019-04-13T17:23:56.300Z,2.20
2019-04-13T17:26:27.196Z,2.20
2019-04-13T17:28:57.949Z,2.13
2019-04-13T17:31:44.295Z,1.67
2019-04-13T17:34:14.206Z,1.80
2019-04-13T17:36:44.248Z,3.10
2019-04-13T17:39:13.104Z,1.50
2019-04-13T17:41:46.904Z,3.17
2019-04-13T17:44:22.938Z,1.77
2019-04-13T17:47:10.012Z,2.30
2019-04-13T17:49:57.207Z,2.97
2019-04-13T17:52:34.120Z,2.10
2019-04-13T17:55:13.033Z,3.27
2019-04-13T17:57:45.694Z,2.00
2019-04-13T18:00:28.644Z,2.50
2019-04-13T18:03:01.922Z,1.60
2019-04-13T18:05:34.426Z,2.50
2019-04-13T18:08:05.784Z,3.77
2019-04-13T18:10:54.644Z,1.67
2019-04-13T18:13:42.144Z,2.77
2019-04-13T18:16:06.137Z,1.83
2019-04-13T18:18:37.535Z,3.13
2019-04-13T18:21:05.890Z,2.70
2019-04-13T18:23:34.160Z,3.27
2019-04-13T18:26:02.733Z,2.17
2019-04-13T18:28:31.540Z,2.87
2019-04-13T18:31:00.327Z,1.70
2019-04-13T18:33:28.597Z,1.63
2019-04-13T18:35:56.912Z,1.53
2019-04-13T18:38:25.254Z,1.67
2019-04-13T18:40:53.873Z,2.50
2019-04-13T18:43:26.377Z,1.93
2019-04-13T18:45:53.789Z,3.17
2019-04-13T18:48:22.819Z,1.60
2019-04-13T18:50:51.951Z,2.60
2019-04-13T18:53:21.235Z,2.23
2019-04-13T18:55:49.711Z,1.50
2019-04-13T18:58:18.596Z,1.47
2019-04-13T19:00:47.162Z,1.83
2019-04-13T19:03:15.435Z,1.50
2019-04-13T19:05:43.784Z,1.67
2019-04-13T19:08:12.055Z,1.63
2019-04-13T19:10:40.388Z,1.60
2019-04-13T19:13:08.792Z,1.43
2019-04-13T19:15:37.074Z,1.73
2019-04-13T19:18:05.388Z,2.37
2019-04-13T19:20:33.698Z,2.03
2019-04-13T19:23:02.845Z,2.20
2019-04-13T19:25:31.133Z,1.70
2019-04-13T19:27:59.421Z,3.00
2019-04-13T19:30:27.693Z,2.53
2019-04-13T19:32:56.049Z,4.03
2019-04-13T19:35:24.323Z,2.67
2019-04-13T19:37:52.617Z,1.57
2019-04-13T19:40:20.892Z,2.30
2019-04-13T19:42:49.171Z,1.60
2019-04-13T19:45:17.443Z,2.07
2019-04-13T19:47:45.723Z,1.43
2019-04-13T19:50:13.995Z,1.40
2019-04-13T19:52:49.764Z,1.50
2019-04-13T19:55:18.109Z,1.80
2019-04-13T19:57:46.395Z,2.27
2019-04-13T20:00:19.422Z,1.17
2019-04-13T20:02:47.709Z,1.73
2019-04-13T20:05:16.048Z,1.60
2019-04-13T20:07:44.340Z,1.43
2019-04-13T20:10:12.606Z,2.40
2019-04-13T20:12:40.958Z,1.70
2019-04-13T20:15:09.768Z,1.40
2019-04-13T20:17:38.374Z,2.50
2019-04-13T20:20:06.649Z,1.57
2019-04-13T20:22:34.934Z,2.00
2019-04-13T20:25:04.898Z,1.43
2019-04-13T20:27:34.593Z,2.43
2019-04-13T20:30:04.157Z,1.30
2019-04-13T20:32:33.929Z,1.40
2019-04-13T20:35:04.072Z,1.50
2019-04-13T20:37:33.772Z,1.13
2019-04-13T20:40:14.194Z,1.10
2019-04-13T20:42:43.697Z,1.47
2019-04-13T20:45:12.145Z,1.67
2019-04-13T20:47:41.550Z,1.33
2019-04-13T20:50:10.175Z,2.03
2019-04-13T20:52:38.465Z,3.00
2019-04-13T20:55:09.775Z,1.43
2019-04-13T20:57:36.961Z,1.30
2019-04-13T21:00:09.707Z,1.83
2019-04-13T21:02:39.547Z,1.80
2019-04-13T21:05:08.227Z,2.07
2019-04-13T21:07:36.503Z,1.50
2019-04-13T21:10:06.232Z,1.43
2019-04-13T21:12:34.575Z,1.73
2019-04-13T21:15:03.310Z,1.77
2019-04-13T21:17:31.639Z,2.63
2019-04-13T21:20:01.165Z,1.80
2019-04-13T21:22:29.578Z,1.77
2019-04-13T21:24:59.015Z,1.70
2019-04-13T21:27:27.604Z,1.43
2019-04-13T21:29:56.842Z,1.30
2019-04-13T21:32:26.726Z,1.77
2019-04-13T21:34:55.677Z,2.07
2019-04-13T21:37:24.872Z,1.63
2019-04-13T21:39:54.757Z,1.17
2019-04-13T21:42:23.646Z,1.70
2019-04-13T21:44:53.003Z,1.67
2019-04-13T21:47:22.682Z,1.63
2019-04-13T21:49:51.801Z,1.47
2019-04-13T21:52:38.766Z,3.10
2019-04-13T21:55:07.058Z,1.60
2019-04-13T21:57:35.375Z,1.60
2019-04-13T22:00:05.855Z,1.30
2019-04-13T22:02:35.819Z,1.30
2019-04-13T22:05:06.030Z,1.50
2019-04-13T22:07:35.208Z,1.83
2019-04-13T22:10:07.167Z,1.50
2019-04-13T22:12:37.137Z,1.30
2019-04-13T22:15:09.240Z,1.43
2019-04-13T22:17:36.184Z,1.30
2019-04-13T22:20:05.893Z,1.60
2019-04-13T22:22:35.629Z,1.50
2019-04-13T22:25:06.048Z,1.50
2019-04-13T22:27:46.822Z,1.50
2019-04-13T22:30:10.206Z,1.30
2019-04-13T22:32:47.206Z,1.30
2019-04-13T22:35:21.369Z,1.30
2019-04-13T22:37:49.771Z,1.40
2019-04-13T22:40:19.252Z,1.37
2019-04-13T22:42:50.392Z,1.57
2019-04-13T22:45:18.272Z,1.53
2019-04-13T22:47:49.840Z,1.43
2019-04-13T22:50:32.776Z,1.43
2019-04-13T22:53:19.322Z,1.43
2019-04-13T22:55:56.275Z,1.37
2019-04-13T22:58:25.178Z,2.27
2019-04-13T23:00:58.395Z,1.40
2019-04-13T23:03:27.128Z,1.37
2019-04-13T23:05:56.477Z,1.20
2019-04-13T23:08:25.174Z,1.73
2019-04-13T23:10:53.516Z,1.47
2019-04-13T23:13:21.785Z,1.33
2019-04-13T23:15:51.261Z,1.27
2019-04-13T23:18:21.140Z,1.40
2019-04-13T23:20:49.626Z,1.43
2019-04-13T23:23:18.037Z,2.13
2019-04-13T23:25:46.349Z,1.30
2019-04-13T23:28:14.628Z,1.23
2019-04-13T23:30:42.896Z,1.63
2019-04-13T23:33:11.181Z,1.80
2019-04-13T23:35:39.447Z,1.27
2019-04-13T23:38:07.729Z,1.30
2019-04-13T23:40:36.007Z,1.67
2019-04-13T23:43:04.295Z,1.00
2019-04-13T23:45:35.968Z,1.40
2019-04-13T23:48:02.614Z,1.40
2019-04-13T23:50:30.908Z,1.50
2019-04-13T23:52:59.198Z,1.50
2019-04-13T23:55:29.271Z,1.30
2019-04-13T23:58:17.088Z,1.30
